Airfield :







YOU CAN JOIN US ON...

 
LOGIN :

Register | Disclaimer

   EN    FR    IT 

 









Legend :    VFR   Marginal VFR   IFR   Intensive IFR   Very Intensive IFR
Visi :
Ceiling :
>= 8 km
>= 3000ft
5 to 8 km
1000 to 3000 ft
1500m to 5 km
500 to 1000 ft
800 to 1500m
200 to 500 ft
< 800m
< 200 ft
Symbols :   Thunderstorms  Fog  Heavy snow  Heavy precipitations  Wind > 20 kt






- Airport Elevation : 180 ft
- IATA code : YZV


CYZV - Sept-Iles

CURRENT METAR :
  • 191800Z 03009KT 4SM -SN DRSN SCT025 BKN090 M15/M20 A2986 RMK SC3AS3 SLP120

EXPIRED METARs :
  • 191700Z 02009KT 10SM -SN DRSN SCT040 BKN080 M16/M21 A2989 RMK SC4AS2 SLP129
  • 191600Z 03011KT 4SM -SN DRSN BKN025 OVC080 M17/M21 A2991 RMK SN5SC1AS2 SLP136

TAF TAF CYZV
Valid from the 19 at 18:00 until the 20 at 18:00 UTC


191741Z 1918/2018 01008KT P6SM -SN SCT020 BKN090
TEMPO 1918/1922 5SM -SN BKN020 OVC090
FM192200 36008KT P6SM BKN050
FM200400 34006KT P6SM SCT040
FM201200 32008KT P6SM BKN060 RMK NXT FCST BY 200000Z



MET'MAP, your aeronautical weather chart ! - Copyright ORBIFLY December 2007 - Disclaimer

ORBIFLY MET'MAP TEAM :

Programming & Development : Alexandra Zaïnal
Concept & original design : Baudouin d'Aumeries
Assistance for programming : Marc-Olivier Méhu
Technical & hardware support : Manuel Goepfert

Contact : metmap@orbifly.com




SOURCES & CREDITS :

   NOAA